sensor_id;sensor_type;location;lat;lon;timestamp;temperature;humidity
9949;DHT22;5013;51.840;8.276;2023-05-07T00:01:56;15.20;1.00
9949;DHT22;5013;51.840;8.276;2023-05-07T00:04:22;15.20;1.00
9949;DHT22;5013;51.840;8.276;2023-05-07T00:06:47;15.20;1.00
9949;DHT22;5013;51.840;8.276;2023-05-07T00:09:13;15.20;1.00
9949;DHT22;5013;51.840;8.276;2023-05-07T00:11:39;15.20;1.00
9949;DHT22;5013;51.840;8.276;2023-05-07T00:14:05;15.30;1.00
9949;DHT22;5013;51.840;8.276;2023-05-07T00:16:30;15.30;1.00
9949;DHT22;5013;51.840;8.276;2023-05-07T00:18:56;15.20;1.00
9949;DHT22;5013;51.840;8.276;2023-05-07T00:21:21;15.20;99.90
9949;DHT22;5013;51.840;8.276;2023-05-07T00:23:47;15.10;28.10
9949;DHT22;5013;51.840;8.276;2023-05-07T00:26:13;15.10;1.00
9949;DHT22;5013;51.840;8.276;2023-05-07T00:28:38;15.10;99.90
9949;DHT22;5013;51.840;8.276;2023-05-07T00:31:04;15.10;99.90
9949;DHT22;5013;51.840;8.276;2023-05-07T00:33:30;15.10;99.90
9949;DHT22;5013;51.840;8.276;2023-05-07T00:35:55;15.10;1.00
9949;DHT22;5013;51.840;8.276;2023-05-07T00:38:21;15.10;99.90
9949;DHT22;5013;51.840;8.276;2023-05-07T00:40:46;15.10;99.90
9949;DHT22;5013;51.840;8.276;2023-05-07T00:43:12;15.00;1.00
9949;DHT22;5013;51.840;8.276;2023-05-07T00:45:38;15.00;99.90
9949;DHT22;5013;51.840;8.276;2023-05-07T00:48:03;15.00;1.00
9949;DHT22;5013;51.840;8.276;2023-05-07T00:50:29;15.00;1.00
9949;DHT22;5013;51.840;8.276;2023-05-07T00:52:56;15.10;1.00
9949;DHT22;5013;51.840;8.276;2023-05-07T00:55:23;15.00;35.40
9949;DHT22;5013;51.840;8.276;2023-05-07T00:57:49;14.90;99.90
9949;DHT22;5013;51.840;8.276;2023-05-07T01:00:15;14.90;99.90
9949;DHT22;5013;51.840;8.276;2023-05-07T01:02:41;14.90;1.00
9949;DHT22;5013;51.840;8.276;2023-05-07T01:05:09;14.90;99.90
9949;DHT22;5013;51.840;8.276;2023-05-07T01:07:37;14.90;1.00
9949;DHT22;5013;51.840;8.276;2023-05-07T01:10:05;14.80;1.00
9949;DHT22;5013;51.840;8.276;2023-05-07T01:12:32;14.80;1.00
9949;DHT22;5013;51.840;8.276;2023-05-07T01:14:58;14.80;1.00
9949;DHT22;5013;51.840;8.276;2023-05-07T01:17:24;14.80;99.90
9949;DHT22;5013;51.840;8.276;2023-05-07T01:19:50;14.90;1.00
9949;DHT22;5013;51.840;8.276;2023-05-07T01:22:17;14.90;1.00
9949;DHT22;5013;51.840;8.276;2023-05-07T01:24:46;14.90;1.00
9949;DHT22;5013;51.840;8.276;2023-05-07T01:27:12;14.90;99.90
9949;DHT22;5013;51.840;8.276;2023-05-07T01:29:38;14.90;99.90
9949;DHT22;5013;51.840;8.276;2023-05-07T01:32:04;14.90;1.00
9949;DHT22;5013;51.840;8.276;2023-05-07T01:34:32;14.90;1.00
9949;DHT22;5013;51.840;8.276;2023-05-07T01:36:59;14.80;99.90
9949;DHT22;5013;51.840;8.276;2023-05-07T01:39:27;14.80;1.00
9949;DHT22;5013;51.840;8.276;2023-05-07T01:41:55;14.80;99.90
9949;DHT22;5013;51.840;8.276;2023-05-07T01:44:22;14.70;99.90
9949;DHT22;5013;51.840;8.276;2023-05-07T01:46:48;14.70;99.90
9949;DHT22;5013;51.840;8.276;2023-05-07T01:49:15;14.70;1.00
9949;DHT22;5013;51.840;8.276;2023-05-07T01:51:41;14.70;1.00
9949;DHT22;5013;51.840;8.276;2023-05-07T01:54:07;14.70;1.00
9949;DHT22;5013;51.840;8.276;2023-05-07T01:56:33;14.70;99.90
9949;DHT22;5013;51.840;8.276;2023-05-07T01:58:59;14.70;99.90
9949;DHT22;5013;51.840;8.276;2023-05-07T02:01:24;14.60;1.00
9949;DHT22;5013;51.840;8.276;2023-05-07T02:03:50;14.70;99.90
9949;DHT22;5013;51.840;8.276;2023-05-07T02:06:16;14.60;6.30
9949;DHT22;5013;51.840;8.276;2023-05-07T02:08:41;14.60;99.90
9949;DHT22;5013;51.840;8.276;2023-05-07T02:11:07;14.60;99.90
9949;DHT22;5013;51.840;8.276;2023-05-07T02:13:33;14.60;99.90
9949;DHT22;5013;51.840;8.276;2023-05-07T02:16:02;14.60;40.00
9949;DHT22;5013;51.840;8.276;2023-05-07T02:18:28;14.60;1.00
9949;DHT22;5013;51.840;8.276;2023-05-07T02:20:54;14.50;99.90
9949;DHT22;5013;51.840;8.276;2023-05-07T02:23:20;14.50;99.90
9949;DHT22;5013;51.840;8.276;2023-05-07T02:25:45;14.50;1.00
9949;DHT22;5013;51.840;8.276;2023-05-07T02:28:11;14.50;11.40
9949;DHT22;5013;51.840;8.276;2023-05-07T02:30:37;14.50;1.00
9949;DHT22;5013;51.840;8.276;2023-05-07T02:33:03;14.50;66.10
9949;DHT22;5013;51.840;8.276;2023-05-07T02:35:29;14.50;1.00
9949;DHT22;5013;51.840;8.276;2023-05-07T02:37:54;14.40;99.90
9949;DHT22;5013;51.840;8.276;2023-05-07T02:40:20;14.40;99.90
9949;DHT22;5013;51.840;8.276;2023-05-07T02:42:46;14.40;1.00
9949;DHT22;5013;51.840;8.276;2023-05-07T02:45:11;14.40;99.90
9949;DHT22;5013;51.840;8.276;2023-05-07T02:47:37;14.40;1.00
9949;DHT22;5013;51.840;8.276;2023-05-07T02:50:03;14.40;1.00
9949;DHT22;5013;51.840;8.276;2023-05-07T02:52:29;14.40;1.00
9949;DHT22;5013;51.840;8.276;2023-05-07T02:54:54;14.40;50.10
9949;DHT22;5013;51.840;8.276;2023-05-07T02:57:20;14.40;1.00
9949;DHT22;5013;51.840;8.276;2023-05-07T02:59:45;14.40;99.90
9949;DHT22;5013;51.840;8.276;2023-05-07T03:02:11;14.40;1.00
9949;DHT22;5013;51.840;8.276;2023-05-07T03:04:37;14.30;16.40
9949;DHT22;5013;51.840;8.276;2023-05-07T03:07:03;14.30;1.00
9949;DHT22;5013;51.840;8.276;2023-05-07T03:09:28;14.20;99.90
9949;DHT22;5013;51.840;8.276;2023-05-07T03:11:54;14.20;23.50
9949;DHT22;5013;51.840;8.276;2023-05-07T03:14:19;14.20;1.00
9949;DHT22;5013;51.840;8.276;2023-05-07T03:16:45;14.10;1.00
9949;DHT22;5013;51.840;8.276;2023-05-07T03:19:11;14.10;1.00
9949;DHT22;5013;51.840;8.276;2023-05-07T03:21:36;14.00;99.90
9949;DHT22;5013;51.840;8.276;2023-05-07T03:24:02;14.10;99.90
9949;DHT22;5013;51.840;8.276;2023-05-07T03:26:27;14.10;99.90
9949;DHT22;5013;51.840;8.276;2023-05-07T03:28:53;14.10;99.90
9949;DHT22;5013;51.840;8.276;2023-05-07T03:31:18;14.10;1.00
9949;DHT22;5013;51.840;8.276;2023-05-07T03:33:52;14.10;1.00
9949;DHT22;5013;51.840;8.276;2023-05-07T03:36:18;14.10;1.00
9949;DHT22;5013;51.840;8.276;2023-05-07T03:38:43;14.10;99.90
9949;DHT22;5013;51.840;8.276;2023-05-07T03:41:09;14.10;99.90
9949;DHT22;5013;51.840;8.276;2023-05-07T03:43:34;14.10;1.00
9949;DHT22;5013;51.840;8.276;2023-05-07T03:46:00;14.10;1.00
9949;DHT22;5013;51.840;8.276;2023-05-07T03:48:25;14.00;1.00
9949;DHT22;5013;51.840;8.276;2023-05-07T03:50:51;14.00;99.90
9949;DHT22;5013;51.840;8.276;2023-05-07T03:53:17;14.00;99.90
9949;DHT22;5013;51.840;8.276;2023-05-07T03:55:42;14.00;1.00
9949;DHT22;5013;51.840;8.276;2023-05-07T03:58:08;14.10;33.60
9949;DHT22;5013;51.840;8.276;2023-05-07T04:00:33;14.10;1.00
9949;DHT22;5013;51.840;8.276;2023-05-07T04:03:03;14.00;61.90
9949;DHT22;5013;51.840;8.276;2023-05-07T04:05:30;14.00;1.00
9949;DHT22;5013;51.840;8.276;2023-05-07T04:07:57;14.00;46.50
9949;DHT22;5013;51.840;8.276;2023-05-07T04:10:22;14.00;1.00
9949;DHT22;5013;51.840;8.276;2023-05-07T04:12:48;13.90;99.90
9949;DHT22;5013;51.840;8.276;2023-05-07T04:15:14;13.90;99.90
9949;DHT22;5013;51.840;8.276;2023-05-07T04:17:39;13.90;1.00
9949;DHT22;5013;51.840;8.276;2023-05-07T04:20:10;13.90;1.00
9949;DHT22;5013;51.840;8.276;2023-05-07T04:22:36;13.90;1.00
9949;DHT22;5013;51.840;8.276;2023-05-07T04:25:02;13.90;99.90
9949;DHT22;5013;51.840;8.276;2023-05-07T04:27:28;13.80;99.90
9949;DHT22;5013;51.840;8.276;2023-05-07T04:29:54;13.90;99.90
9949;DHT22;5013;51.840;8.276;2023-05-07T04:32:21;13.80;52.60
9949;DHT22;5013;51.840;8.276;2023-05-07T04:34:47;13.80;1.00
9949;DHT22;5013;51.840;8.276;2023-05-07T04:37:13;13.80;1.00
9949;DHT22;5013;51.840;8.276;2023-05-07T04:39:38;13.80;99.90
9949;DHT22;5013;51.840;8.276;2023-05-07T04:42:04;13.80;1.00
9949;DHT22;5013;51.840;8.276;2023-05-07T04:44:30;13.90;99.90
9949;DHT22;5013;51.840;8.276;2023-05-07T04:46:56;13.80;1.00
9949;DHT22;5013;51.840;8.276;2023-05-07T04:49:22;13.80;1.00
9949;DHT22;5013;51.840;8.276;2023-05-07T04:51:47;13.70;1.00
9949;DHT22;5013;51.840;8.276;2023-05-07T04:54:13;13.80;1.00
9949;DHT22;5013;51.840;8.276;2023-05-07T04:56:38;13.80;1.00
9949;DHT22;5013;51.840;8.276;2023-05-07T04:59:04;13.90;99.90
9949;DHT22;5013;51.840;8.276;2023-05-07T05:01:31;14.00;99.90
9949;DHT22;5013;51.840;8.276;2023-05-07T05:03:56;14.00;1.00
9949;DHT22;5013;51.840;8.276;2023-05-07T05:06:22;14.00;1.00
9949;DHT22;5013;51.840;8.276;2023-05-07T05:08:47;14.00;99.90
9949;DHT22;5013;51.840;8.276;2023-05-07T05:11:13;14.00;1.00
9949;DHT22;5013;51.840;8.276;2023-05-07T05:13:38;14.00;1.00
9949;DHT22;5013;51.840;8.276;2023-05-07T05:16:04;14.00;58.20
9949;DHT22;5013;51.840;8.276;2023-05-07T05:18:31;14.00;1.00
9949;DHT22;5013;51.840;8.276;2023-05-07T05:20:56;14.00;1.00
9949;DHT22;5013;51.840;8.276;2023-05-07T05:23:22;13.90;1.00
9949;DHT22;5013;51.840;8.276;2023-05-07T05:25:47;13.90;1.00
9949;DHT22;5013;51.840;8.276;2023-05-07T05:28:13;14.00;1.00
9949;DHT22;5013;51.840;8.276;2023-05-07T05:30:39;14.10;1.00
9949;DHT22;5013;51.840;8.276;2023-05-07T05:33:04;14.10;1.00
9949;DHT22;5013;51.840;8.276;2023-05-07T05:35:30;14.10;99.90
9949;DHT22;5013;51.840;8.276;2023-05-07T05:37:56;14.20;1.00
9949;DHT22;5013;51.840;8.276;2023-05-07T05:40:21;14.20;99.90
9949;DHT22;5013;51.840;8.276;2023-05-07T05:42:47;14.20;99.90
9949;DHT22;5013;51.840;8.276;2023-05-07T05:45:12;14.20;1.00
9949;DHT22;5013;51.840;8.276;2023-05-07T05:47:38;14.20;1.00
9949;DHT22;5013;51.840;8.276;2023-05-07T05:50:06;14.30;1.00
9949;DHT22;5013;51.840;8.276;2023-05-07T05:52:31;14.30;99.90
9949;DHT22;5013;51.840;8.276;2023-05-07T05:54:57;14.30;99.90
9949;DHT22;5013;51.840;8.276;2023-05-07T05:57:22;14.30;1.00
9949;DHT22;5013;51.840;8.276;2023-05-07T05:59:48;14.30;99.90
9949;DHT22;5013;51.840;8.276;2023-05-07T06:02:14;14.40;1.00
9949;DHT22;5013;51.840;8.276;2023-05-07T06:04:39;14.40;99.90
9949;DHT22;5013;51.840;8.276;2023-05-07T06:07:05;14.40;1.00
9949;DHT22;5013;51.840;8.276;2023-05-07T06:09:30;14.50;1.00
9949;DHT22;5013;51.840;8.276;2023-05-07T06:11:56;14.60;1.00
9949;DHT22;5013;51.840;8.276;2023-05-07T06:14:22;14.50;1.00
9949;DHT22;5013;51.840;8.276;2023-05-07T06:16:47;14.60;1.00
9949;DHT22;5013;51.840;8.276;2023-05-07T06:19:13;14.70;1.00
9949;DHT22;5013;51.840;8.276;2023-05-07T06:21:39;14.70;1.00
9949;DHT22;5013;51.840;8.276;2023-05-07T06:24:05;14.70;1.00
9949;DHT22;5013;51.840;8.276;2023-05-07T06:26:31;14.60;99.90
9949;DHT22;5013;51.840;8.276;2023-05-07T06:28:56;14.60;1.00
9949;DHT22;5013;51.840;8.276;2023-05-07T06:31:22;14.60;99.90
9949;DHT22;5013;51.840;8.276;2023-05-07T06:33:48;14.70;99.90
9949;DHT22;5013;51.840;8.276;2023-05-07T06:36:14;14.60;1.00
9949;DHT22;5013;51.840;8.276;2023-05-07T06:38:40;14.70;1.00
9949;DHT22;5013;51.840;8.276;2023-05-07T06:41:06;14.80;99.90
9949;DHT22;5013;51.840;8.276;2023-05-07T06:43:32;15.00;1.00
9949;DHT22;5013;51.840;8.276;2023-05-07T06:45:57;15.10;1.00
9949;DHT22;5013;51.840;8.276;2023-05-07T06:48:23;15.20;1.00
9949;DHT22;5013;51.840;8.276;2023-05-07T06:50:48;15.20;1.00
9949;DHT22;5013;51.840;8.276;2023-05-07T06:53:14;15.30;1.00
9949;DHT22;5013;51.840;8.276;2023-05-07T06:55:39;15.30;99.90
9949;DHT22;5013;51.840;8.276;2023-05-07T06:58:06;15.20;99.90
9949;DHT22;5013;51.840;8.276;2023-05-07T07:00:31;15.10;1.00
9949;DHT22;5013;51.840;8.276;2023-05-07T07:02:57;15.10;1.00
9949;DHT22;5013;51.840;8.276;2023-05-07T07:05:22;15.00;1.00
9949;DHT22;5013;51.840;8.276;2023-05-07T07:07:48;15.10;1.00
9949;DHT22;5013;51.840;8.276;2023-05-07T07:10:20;15.20;1.00
9949;DHT22;5013;51.840;8.276;2023-05-07T07:12:45;15.10;99.90
9949;DHT22;5013;51.840;8.276;2023-05-07T07:15:11;15.20;99.90
9949;DHT22;5013;51.840;8.276;2023-05-07T07:17:37;15.20;37.00
9949;DHT22;5013;51.840;8.276;2023-05-07T07:20:03;15.30;99.90
9949;DHT22;5013;51.840;8.276;2023-05-07T07:22:29;15.40;99.90
9949;DHT22;5013;51.840;8.276;2023-05-07T07:24:54;15.40;99.90
9949;DHT22;5013;51.840;8.276;2023-05-07T07:27:20;15.50;99.90
9949;DHT22;5013;51.840;8.276;2023-05-07T07:29:45;15.50;1.00
9949;DHT22;5013;51.840;8.276;2023-05-07T07:32:11;15.60;99.90
9949;DHT22;5013;51.840;8.276;2023-05-07T07:34:36;15.50;1.00
9949;DHT22;5013;51.840;8.276;2023-05-07T07:37:02;15.60;99.90
9949;DHT22;5013;51.840;8.276;2023-05-07T07:39:31;15.60;99.90
9949;DHT22;5013;51.840;8.276;2023-05-07T07:41:57;15.60;99.90
9949;DHT22;5013;51.840;8.276;2023-05-07T07:44:23;15.90;1.00
9949;DHT22;5013;51.840;8.276;2023-05-07T07:46:48;16.20;1.00
9949;DHT22;5013;51.840;8.276;2023-05-07T07:49:14;16.30;99.90
9949;DHT22;5013;51.840;8.276;2023-05-07T07:51:40;16.40;99.90
9949;DHT22;5013;51.840;8.276;2023-05-07T07:54:06;16.40;99.90
9949;DHT22;5013;51.840;8.276;2023-05-07T07:56:32;16.30;1.00
9949;DHT22;5013;51.840;8.276;2023-05-07T07:58:59;16.40;99.90
9949;DHT22;5013;51.840;8.276;2023-05-07T08:01:24;16.50;1.00
9949;DHT22;5013;51.840;8.276;2023-05-07T08:03:51;16.50;1.00
9949;DHT22;5013;51.840;8.276;2023-05-07T08:06:16;16.80;1.00
9949;DHT22;5013;51.840;8.276;2023-05-07T08:08:42;16.80;1.00
9949;DHT22;5013;51.840;8.276;2023-05-07T08:11:07;17.00;1.00
9949;DHT22;5013;51.840;8.276;2023-05-07T08:13:33;17.10;1.00
9949;DHT22;5013;51.840;8.276;2023-05-07T08:15:59;17.00;99.90
9949;DHT22;5013;51.840;8.276;2023-05-07T08:18:25;17.00;99.90
9949;DHT22;5013;51.840;8.276;2023-05-07T08:20:51;17.00;99.90
9949;DHT22;5013;51.840;8.276;2023-05-07T08:23:16;16.90;99.90
9949;DHT22;5013;51.840;8.276;2023-05-07T08:25:42;17.00;1.00
9949;DHT22;5013;51.840;8.276;2023-05-07T08:28:08;17.30;99.90
9949;DHT22;5013;51.840;8.276;2023-05-07T08:30:34;17.40;99.90
9949;DHT22;5013;51.840;8.276;2023-05-07T08:33:00;17.40;1.00
9949;DHT22;5013;51.840;8.276;2023-05-07T08:35:26;17.60;1.00
9949;DHT22;5013;51.840;8.276;2023-05-07T08:37:53;17.50;1.00
9949;DHT22;5013;51.840;8.276;2023-05-07T08:40:19;17.70;1.00
9949;DHT22;5013;51.840;8.276;2023-05-07T08:42:44;17.80;1.00
9949;DHT22;5013;51.840;8.276;2023-05-07T08:45:11;18.00;1.00
9949;DHT22;5013;51.840;8.276;2023-05-07T08:47:46;18.20;1.00
9949;DHT22;5013;51.840;8.276;2023-05-07T08:50:12;17.90;1.00
9949;DHT22;5013;51.840;8.276;2023-05-07T08:52:39;18.00;1.00
9949;DHT22;5013;51.840;8.276;2023-05-07T08:55:07;17.90;99.90
9949;DHT22;5013;51.840;8.276;2023-05-07T08:57:32;18.10;1.00
9949;DHT22;5013;51.840;8.276;2023-05-07T08:59:58;18.30;99.90
9949;DHT22;5013;51.840;8.276;2023-05-07T09:02:24;18.30;99.90
9949;DHT22;5013;51.840;8.276;2023-05-07T09:04:49;18.20;99.90
9949;DHT22;5013;51.840;8.276;2023-05-07T09:07:16;18.20;99.90
9949;DHT22;5013;51.840;8.276;2023-05-07T09:09:44;18.50;99.90
9949;DHT22;5013;51.840;8.276;2023-05-07T09:12:09;18.70;90.70
9949;DHT22;5013;51.840;8.276;2023-05-07T09:14:35;18.90;99.90
9949;DHT22;5013;51.840;8.276;2023-05-07T09:17:01;19.20;1.00
9949;DHT22;5013;51.840;8.276;2023-05-07T09:19:27;19.00;19.00
9949;DHT22;5013;51.840;8.276;2023-05-07T09:22:03;19.30;99.90
9949;DHT22;5013;51.840;8.276;2023-05-07T09:24:29;19.60;1.00
9949;DHT22;5013;51.840;8.276;2023-05-07T09:26:59;19.30;1.00
9949;DHT22;5013;51.840;8.276;2023-05-07T09:29:26;19.10;99.90
9949;DHT22;5013;51.840;8.276;2023-05-07T09:31:54;19.30;1.00
9949;DHT22;5013;51.840;8.276;2023-05-07T09:34:20;19.10;1.00
9949;DHT22;5013;51.840;8.276;2023-05-07T09:36:46;19.10;1.00
9949;DHT22;5013;51.840;8.276;2023-05-07T09:39:12;19.00;99.90
9949;DHT22;5013;51.840;8.276;2023-05-07T09:41:47;19.00;99.90
9949;DHT22;5013;51.840;8.276;2023-05-07T09:44:15;18.70;99.90
9949;DHT22;5013;51.840;8.276;2023-05-07T09:46:43;19.00;99.90
9949;DHT22;5013;51.840;8.276;2023-05-07T09:49:16;19.30;1.00
9949;DHT22;5013;51.840;8.276;2023-05-07T09:51:48;19.70;1.00
9949;DHT22;5013;51.840;8.276;2023-05-07T09:54:15;19.80;1.00
9949;DHT22;5013;51.840;8.276;2023-05-07T09:56:43;20.00;1.00
9949;DHT22;5013;51.840;8.276;2023-05-07T09:59:14;20.40;1.00
9949;DHT22;5013;51.840;8.276;2023-05-07T10:01:43;20.90;1.00
9949;DHT22;5013;51.840;8.276;2023-05-07T10:04:10;21.20;99.90
9949;DHT22;5013;51.840;8.276;2023-05-07T10:06:37;21.00;1.00
9949;DHT22;5013;51.840;8.276;2023-05-07T10:09:03;21.20;1.00
9949;DHT22;5013;51.840;8.276;2023-05-07T10:11:32;21.30;99.90
9949;DHT22;5013;51.840;8.276;2023-05-07T10:13:59;21.20;99.90
9949;DHT22;5013;51.840;8.276;2023-05-07T10:16:33;21.40;1.00
9949;DHT22;5013;51.840;8.276;2023-05-07T10:19:03;21.70;99.90
9949;DHT22;5013;51.840;8.276;2023-05-07T10:21:30;21.50;99.90
9949;DHT22;5013;51.840;8.276;2023-05-07T10:24:09;21.40;1.00
9949;DHT22;5013;51.840;8.276;2023-05-07T10:26:41;21.40;99.90
9949;DHT22;5013;51.840;8.276;2023-05-07T10:29:14;21.00;1.00
9949;DHT22;5013;51.840;8.276;2023-05-07T10:34:16;21.30;99.90
9949;DHT22;5013;51.840;8.276;2023-05-07T10:36:45;21.40;99.90
9949;DHT22;5013;51.840;8.276;2023-05-07T10:39:10;21.40;99.90
9949;DHT22;5013;51.840;8.276;2023-05-07T10:41:36;21.60;99.90
9949;DHT22;5013;51.840;8.276;2023-05-07T10:44:02;21.50;99.90
9949;DHT22;5013;51.840;8.276;2023-05-07T10:46:28;21.70;99.90
9949;DHT22;5013;51.840;8.276;2023-05-07T10:51:26;21.70;99.90
9949;DHT22;5013;51.840;8.276;2023-05-07T10:56:37;22.00;99.90
9949;DHT22;5013;51.840;8.276;2023-05-07T10:59:38;22.30;99.90
9949;DHT22;5013;51.840;8.276;2023-05-07T11:02:07;22.30;99.90
9949;DHT22;5013;51.840;8.276;2023-05-07T11:04:35;22.10;99.90
9949;DHT22;5013;51.840;8.276;2023-05-07T11:12:17;21.90;1.00
9949;DHT22;5013;51.840;8.276;2023-05-07T11:17:09;22.10;99.90
9949;DHT22;5013;51.840;8.276;2023-05-07T11:19:52;22.40;99.90
9949;DHT22;5013;51.840;8.276;2023-05-07T11:25:06;22.10;99.90
9949;DHT22;5013;51.840;8.276;2023-05-07T11:27:32;22.00;99.90
9949;DHT22;5013;51.840;8.276;2023-05-07T11:29:58;22.00;99.90
9949;DHT22;5013;51.840;8.276;2023-05-07T11:32:31;22.30;99.90
9949;DHT22;5013;51.840;8.276;2023-05-07T11:34:58;22.60;99.90
9949;DHT22;5013;51.840;8.276;2023-05-07T11:40:17;22.60;99.90
9949;DHT22;5013;51.840;8.276;2023-05-07T11:42:43;22.40;99.90
9949;DHT22;5013;51.840;8.276;2023-05-07T11:45:09;22.70;99.90
9949;DHT22;5013;51.840;8.276;2023-05-07T11:47:35;23.20;99.90
9949;DHT22;5013;51.840;8.276;2023-05-07T11:50:07;23.40;99.90
9949;DHT22;5013;51.840;8.276;2023-05-07T11:52:33;23.40;49.90
9949;DHT22;5013;51.840;8.276;2023-05-07T11:55:00;23.40;1.00
9949;DHT22;5013;51.840;8.276;2023-05-07T11:57:27;23.20;1.00
9949;DHT22;5013;51.840;8.276;2023-05-07T11:59:56;23.10;1.00
9949;DHT22;5013;51.840;8.276;2023-05-07T12:02:23;23.00;55.80
9949;DHT22;5013;51.840;8.276;2023-05-07T12:04:50;22.60;33.40
9949;DHT22;5013;51.840;8.276;2023-05-07T12:07:16;22.50;99.90
9949;DHT22;5013;51.840;8.276;2023-05-07T12:09:42;22.60;78.80
9949;DHT22;5013;51.840;8.276;2023-05-07T12:12:11;22.70;10.30
9949;DHT22;5013;51.840;8.276;2023-05-07T12:14:41;22.50;31.80
9949;DHT22;5013;51.840;8.276;2023-05-07T12:17:12;22.50;99.90
9949;DHT22;5013;51.840;8.276;2023-05-07T12:19:39;22.40;90.60
9949;DHT22;5013;51.840;8.276;2023-05-07T12:22:07;22.40;99.90
9949;DHT22;5013;51.840;8.276;2023-05-07T12:24:56;22.50;99.90
9949;DHT22;5013;51.840;8.276;2023-05-07T12:27:22;22.70;99.90
9949;DHT22;5013;51.840;8.276;2023-05-07T12:29:49;22.80;1.00
9949;DHT22;5013;51.840;8.276;2023-05-07T12:32:16;22.80;4.00
9949;DHT22;5013;51.840;8.276;2023-05-07T12:34:43;22.90;35.20
9949;DHT22;5013;51.840;8.276;2023-05-07T12:37:08;23.10;8.30
9949;DHT22;5013;51.840;8.276;2023-05-07T12:39:34;23.40;1.00
9949;DHT22;5013;51.840;8.276;2023-05-07T12:42:00;23.40;1.00
9949;DHT22;5013;51.840;8.276;2023-05-07T12:44:30;23.40;1.00
9949;DHT22;5013;51.840;8.276;2023-05-07T12:46:56;23.30;1.00
9949;DHT22;5013;51.840;8.276;2023-05-07T12:49:23;23.20;1.00
9949;DHT22;5013;51.840;8.276;2023-05-07T12:51:49;23.40;11.30
9949;DHT22;5013;51.840;8.276;2023-05-07T12:54:28;23.40;1.00
9949;DHT22;5013;51.840;8.276;2023-05-07T12:57:21;23.20;27.60
9949;DHT22;5013;51.840;8.276;2023-05-07T12:59:46;23.20;1.00
9949;DHT22;5013;51.840;8.276;2023-05-07T13:02:12;23.10;1.00
9949;DHT22;5013;51.840;8.276;2023-05-07T13:04:38;23.40;1.00
9949;DHT22;5013;51.840;8.276;2023-05-07T13:07:03;23.70;1.00
9949;DHT22;5013;51.840;8.276;2023-05-07T13:09:31;23.60;1.00
9949;DHT22;5013;51.840;8.276;2023-05-07T13:11:57;23.80;1.00
9949;DHT22;5013;51.840;8.276;2023-05-07T13:14:25;23.60;1.00
9949;DHT22;5013;51.840;8.276;2023-05-07T13:16:50;23.70;1.00
9949;DHT22;5013;51.840;8.276;2023-05-07T13:19:16;23.70;1.00
9949;DHT22;5013;51.840;8.276;2023-05-07T13:21:42;23.60;1.00
9949;DHT22;5013;51.840;8.276;2023-05-07T13:24:08;23.60;1.00
9949;DHT22;5013;51.840;8.276;2023-05-07T13:26:33;23.70;1.00
9949;DHT22;5013;51.840;8.276;2023-05-07T13:28:59;23.50;1.00
9949;DHT22;5013;51.840;8.276;2023-05-07T13:31:25;23.50;1.00
9949;DHT22;5013;51.840;8.276;2023-05-07T13:33:50;23.50;1.00
9949;DHT22;5013;51.840;8.276;2023-05-07T13:36:16;23.20;1.00
9949;DHT22;5013;51.840;8.276;2023-05-07T13:38:41;22.80;1.00
9949;DHT22;5013;51.840;8.276;2023-05-07T13:41:07;22.80;1.00
9949;DHT22;5013;51.840;8.276;2023-05-07T13:43:33;23.10;14.00
9949;DHT22;5013;51.840;8.276;2023-05-07T13:45:59;23.30;1.00
9949;DHT22;5013;51.840;8.276;2023-05-07T13:48:25;23.60;1.00
9949;DHT22;5013;51.840;8.276;2023-05-07T13:50:51;23.50;1.00
9949;DHT22;5013;51.840;8.276;2023-05-07T13:53:17;23.50;1.00
9949;DHT22;5013;51.840;8.276;2023-05-07T13:55:43;23.10;1.00
9949;DHT22;5013;51.840;8.276;2023-05-07T13:58:09;22.90;29.10
9949;DHT22;5013;51.840;8.276;2023-05-07T14:00:35;22.90;1.00
9949;DHT22;5013;51.840;8.276;2023-05-07T14:03:00;23.00;99.90
9949;DHT22;5013;51.840;8.276;2023-05-07T14:05:26;23.50;1.00
9949;DHT22;5013;51.840;8.276;2023-05-07T14:07:55;23.30;1.00
9949;DHT22;5013;51.840;8.276;2023-05-07T14:10:22;23.10;1.00
9949;DHT22;5013;51.840;8.276;2023-05-07T14:12:47;23.00;1.00
9949;DHT22;5013;51.840;8.276;2023-05-07T14:15:13;22.60;1.00
9949;DHT22;5013;51.840;8.276;2023-05-07T14:17:39;22.50;16.40
9949;DHT22;5013;51.840;8.276;2023-05-07T14:20:05;22.40;23.00
9949;DHT22;5013;51.840;8.276;2023-05-07T14:22:33;22.30;99.90
9949;DHT22;5013;51.840;8.276;2023-05-07T14:24:59;22.40;99.90
9949;DHT22;5013;51.840;8.276;2023-05-07T14:27:24;22.50;95.50
9949;DHT22;5013;51.840;8.276;2023-05-07T14:29:50;22.30;48.40
9949;DHT22;5013;51.840;8.276;2023-05-07T14:32:19;22.40;18.70
9949;DHT22;5013;51.840;8.276;2023-05-07T14:34:45;22.40;18.30
9949;DHT22;5013;51.840;8.276;2023-05-07T14:37:11;22.30;39.60
9949;DHT22;5013;51.840;8.276;2023-05-07T14:39:37;22.30;51.80
9949;DHT22;5013;51.840;8.276;2023-05-07T14:42:03;22.00;78.00
9949;DHT22;5013;51.840;8.276;2023-05-07T14:44:28;22.10;99.90
9949;DHT22;5013;51.840;8.276;2023-05-07T14:46:54;22.20;99.90
9949;DHT22;5013;51.840;8.276;2023-05-07T14:49:20;22.00;94.60
9949;DHT22;5013;51.840;8.276;2023-05-07T14:51:46;22.10;99.90
9949;DHT22;5013;51.840;8.276;2023-05-07T14:54:13;22.00;99.90
9949;DHT22;5013;51.840;8.276;2023-05-07T14:56:39;22.00;99.90
9949;DHT22;5013;51.840;8.276;2023-05-07T14:59:05;22.00;99.90
9949;DHT22;5013;51.840;8.276;2023-05-07T15:01:30;22.00;99.90
9949;DHT22;5013;51.840;8.276;2023-05-07T15:03:56;21.90;93.60
9949;DHT22;5013;51.840;8.276;2023-05-07T15:06:21;21.60;99.90
9949;DHT22;5013;51.840;8.276;2023-05-07T15:08:48;21.50;99.90
9949;DHT22;5013;51.840;8.276;2023-05-07T15:11:14;21.40;99.90
9949;DHT22;5013;51.840;8.276;2023-05-07T15:13:42;21.50;99.90
9949;DHT22;5013;51.840;8.276;2023-05-07T15:16:08;21.40;99.90
9949;DHT22;5013;51.840;8.276;2023-05-07T15:18:33;21.40;99.90
9949;DHT22;5013;51.840;8.276;2023-05-07T15:20:59;21.40;99.90
9949;DHT22;5013;51.840;8.276;2023-05-07T15:23:25;21.20;99.90
9949;DHT22;5013;51.840;8.276;2023-05-07T15:25:51;21.30;99.90
9949;DHT22;5013;51.840;8.276;2023-05-07T15:28:17;21.30;99.90
9949;DHT22;5013;51.840;8.276;2023-05-07T15:30:43;21.30;99.90
9949;DHT22;5013;51.840;8.276;2023-05-07T15:33:08;21.40;99.90
9949;DHT22;5013;51.840;8.276;2023-05-07T15:35:34;21.40;99.90
9949;DHT22;5013;51.840;8.276;2023-05-07T15:38:00;21.30;99.90
9949;DHT22;5013;51.840;8.276;2023-05-07T15:40:26;21.20;99.90
9949;DHT22;5013;51.840;8.276;2023-05-07T15:42:55;21.20;99.90
9949;DHT22;5013;51.840;8.276;2023-05-07T15:45:21;21.30;99.90
9949;DHT22;5013;51.840;8.276;2023-05-07T15:47:47;21.30;99.90
9949;DHT22;5013;51.840;8.276;2023-05-07T15:50:12;21.40;99.90
9949;DHT22;5013;51.840;8.276;2023-05-07T15:52:38;21.20;99.90
9949;DHT22;5013;51.840;8.276;2023-05-07T15:55:05;20.90;99.90
9949;DHT22;5013;51.840;8.276;2023-05-07T15:57:31;20.90;99.90
9949;DHT22;5013;51.840;8.276;2023-05-07T15:59:57;20.90;99.90
9949;DHT22;5013;51.840;8.276;2023-05-07T16:02:23;20.90;99.90
9949;DHT22;5013;51.840;8.276;2023-05-07T16:04:49;21.00;99.90
9949;DHT22;5013;51.840;8.276;2023-05-07T16:10:32;20.80;99.90
9949;DHT22;5013;51.840;8.276;2023-05-07T16:12:58;20.60;99.90
9949;DHT22;5013;51.840;8.276;2023-05-07T16:15:24;20.70;99.90
9949;DHT22;5013;51.840;8.276;2023-05-07T16:17:49;20.70;99.90
9949;DHT22;5013;51.840;8.276;2023-05-07T16:20:16;20.70;99.90
9949;DHT22;5013;51.840;8.276;2023-05-07T16:22:44;20.70;99.90
9949;DHT22;5013;51.840;8.276;2023-05-07T16:25:10;20.60;99.90
9949;DHT22;5013;51.840;8.276;2023-05-07T16:27:35;20.60;99.90
9949;DHT22;5013;51.840;8.276;2023-05-07T16:30:01;20.60;99.90